sensor_id;sensor_type;location;lat;lon;timestamp;P1;durP1;ratioP1;P2;durP2;ratioP2
52858;SDS011;38721;53.098;6.596;2022-07-21T00:02:17;9.35;;;5.63;;
52858;SDS011;38721;53.098;6.596;2022-07-21T00:04:43;9.35;;;5.90;;
52858;SDS011;38721;53.098;6.596;2022-07-21T00:07:09;9.65;;;5.47;;
52858;SDS011;38721;53.098;6.596;2022-07-21T00:09:35;10.88;;;5.78;;
52858;SDS011;38721;53.098;6.596;2022-07-21T00:12:04;8.48;;;6.20;;
52858;SDS011;38721;53.098;6.596;2022-07-21T00:14:34;9.82;;;5.70;;
52858;SDS011;38721;53.098;6.596;2022-07-21T00:17:00;7.47;;;5.82;;
52858;SDS011;38721;53.098;6.596;2022-07-21T00:19:26;7.57;;;5.90;;
52858;SDS011;38721;53.098;6.596;2022-07-21T00:21:54;9.45;;;6.10;;
52858;SDS011;38721;53.098;6.596;2022-07-21T00:24:20;10.77;;;6.03;;
52858;SDS011;38721;53.098;6.596;2022-07-21T00:26:48;7.78;;;5.85;;
52858;SDS011;38721;53.098;6.596;2022-07-21T00:29:14;11.55;;;6.50;;
52858;SDS011;38721;53.098;6.596;2022-07-21T00:31:40;9.95;;;6.60;;
52858;SDS011;38721;53.098;6.596;2022-07-21T00:34:06;15.00;;;6.80;;
52858;SDS011;38721;53.098;6.596;2022-07-21T00:36:34;9.40;;;6.43;;
52858;SDS011;38721;53.098;6.596;2022-07-21T00:39:03;10.80;;;6.47;;
52858;SDS011;38721;53.098;6.596;2022-07-21T00:41:29;15.77;;;7.55;;
52858;SDS011;38721;53.098;6.596;2022-07-21T00:43:55;11.52;;;8.05;;
52858;SDS011;38721;53.098;6.596;2022-07-21T00:46:21;12.27;;;7.55;;
52858;SDS011;38721;53.098;6.596;2022-07-21T00:48:47;16.15;;;9.18;;
52858;SDS011;38721;53.098;6.596;2022-07-21T00:51:13;14.35;;;8.15;;
52858;SDS011;38721;53.098;6.596;2022-07-21T00:53:38;13.27;;;8.43;;
52858;SDS011;38721;53.098;6.596;2022-07-21T00:56:04;13.30;;;9.02;;
52858;SDS011;38721;53.098;6.596;2022-07-21T00:58:31;15.52;;;10.02;;
52858;SDS011;38721;53.098;6.596;2022-07-21T01:00:57;15.15;;;9.10;;
52858;SDS011;38721;53.098;6.596;2022-07-21T01:03:23;14.85;;;9.90;;
52858;SDS011;38721;53.098;6.596;2022-07-21T01:05:49;12.95;;;9.68;;
52858;SDS011;38721;53.098;6.596;2022-07-21T01:08:15;14.25;;;9.65;;
52858;SDS011;38721;53.098;6.596;2022-07-21T01:10:41;13.63;;;9.40;;
52858;SDS011;38721;53.098;6.596;2022-07-21T01:13:06;13.70;;;9.48;;
52858;SDS011;38721;53.098;6.596;2022-07-21T01:15:32;14.82;;;9.65;;
52858;SDS011;38721;53.098;6.596;2022-07-21T01:17:58;15.75;;;10.00;;
52858;SDS011;38721;53.098;6.596;2022-07-21T01:20:25;12.57;;;9.88;;
52858;SDS011;38721;53.098;6.596;2022-07-21T01:22:53;13.88;;;9.98;;
52858;SDS011;38721;53.098;6.596;2022-07-21T01:25:23;15.27;;;10.15;;
52858;SDS011;38721;53.098;6.596;2022-07-21T01:27:49;12.55;;;9.45;;
52858;SDS011;38721;53.098;6.596;2022-07-21T01:30:15;15.95;;;11.88;;
52858;SDS011;38721;53.098;6.596;2022-07-21T01:32:42;14.48;;;9.98;;
52858;SDS011;38721;53.098;6.596;2022-07-21T01:35:10;14.05;;;10.02;;
52858;SDS011;38721;53.098;6.596;2022-07-21T01:37:38;15.63;;;10.70;;
52858;SDS011;38721;53.098;6.596;2022-07-21T01:40:09;14.02;;;10.07;;
52858;SDS011;38721;53.098;6.596;2022-07-21T01:42:54;19.23;;;11.20;;
52858;SDS011;38721;53.098;6.596;2022-07-21T01:45:21;15.60;;;10.88;;
52858;SDS011;38721;53.098;6.596;2022-07-21T01:47:47;16.80;;;11.38;;
52858;SDS011;38721;53.098;6.596;2022-07-21T01:50:13;14.38;;;11.07;;
52858;SDS011;38721;53.098;6.596;2022-07-21T01:52:42;15.48;;;11.38;;
52858;SDS011;38721;53.098;6.596;2022-07-21T01:55:08;16.85;;;10.95;;
52858;SDS011;38721;53.098;6.596;2022-07-21T01:57:34;15.27;;;11.95;;
52858;SDS011;38721;53.098;6.596;2022-07-21T02:02:49;14.80;;;11.40;;
52858;SDS011;38721;53.098;6.596;2022-07-21T02:05:14;14.80;;;10.75;;
52858;SDS011;38721;53.098;6.596;2022-07-21T02:07:40;16.02;;;11.48;;
52858;SDS011;38721;53.098;6.596;2022-07-21T02:10:06;15.57;;;11.82;;
52858;SDS011;38721;53.098;6.596;2022-07-21T02:12:32;17.45;;;12.30;;
52858;SDS011;38721;53.098;6.596;2022-07-21T02:14:58;18.20;;;12.90;;
52858;SDS011;38721;53.098;6.596;2022-07-21T02:17:24;16.40;;;11.65;;
52858;SDS011;38721;53.098;6.596;2022-07-21T02:19:49;16.58;;;12.13;;
52858;SDS011;38721;53.098;6.596;2022-07-21T02:22:15;18.02;;;12.70;;
52858;SDS011;38721;53.098;6.596;2022-07-21T02:24:41;14.90;;;12.18;;
52858;SDS011;38721;53.098;6.596;2022-07-21T02:27:07;15.40;;;11.18;;
52858;SDS011;38721;53.098;6.596;2022-07-21T02:29:33;15.52;;;12.20;;
52858;SDS011;38721;53.098;6.596;2022-07-21T02:31:58;18.67;;;13.27;;
52858;SDS011;38721;53.098;6.596;2022-07-21T02:34:24;14.90;;;11.75;;
52858;SDS011;38721;53.098;6.596;2022-07-21T02:36:50;20.33;;;14.75;;
52858;SDS011;38721;53.098;6.596;2022-07-21T02:39:16;19.23;;;12.52;;
52858;SDS011;38721;53.098;6.596;2022-07-21T02:41:41;14.52;;;12.70;;
52858;SDS011;38721;53.098;6.596;2022-07-21T02:44:07;16.95;;;13.00;;
52858;SDS011;38721;53.098;6.596;2022-07-21T02:46:33;19.30;;;13.07;;
52858;SDS011;38721;53.098;6.596;2022-07-21T02:48:59;16.25;;;13.20;;
52858;SDS011;38721;53.098;6.596;2022-07-21T02:51:24;21.45;;;13.32;;
52858;SDS011;38721;53.098;6.596;2022-07-21T02:53:50;19.58;;;13.75;;
52858;SDS011;38721;53.098;6.596;2022-07-21T02:56:16;18.70;;;13.45;;
52858;SDS011;38721;53.098;6.596;2022-07-21T02:58:43;17.85;;;12.88;;
52858;SDS011;38721;53.098;6.596;2022-07-21T03:01:08;18.17;;;13.07;;
52858;SDS011;38721;53.098;6.596;2022-07-21T03:03:35;17.63;;;13.68;;
52858;SDS011;38721;53.098;6.596;2022-07-21T03:06:02;16.27;;;13.70;;
52858;SDS011;38721;53.098;6.596;2022-07-21T03:08:30;20.55;;;14.45;;
52858;SDS011;38721;53.098;6.596;2022-07-21T03:10:59;19.33;;;13.50;;
52858;SDS011;38721;53.098;6.596;2022-07-21T03:13:25;19.40;;;14.73;;
52858;SDS011;38721;53.098;6.596;2022-07-21T03:15:50;16.00;;;12.82;;
52858;SDS011;38721;53.098;6.596;2022-07-21T03:18:16;18.25;;;13.40;;
52858;SDS011;38721;53.098;6.596;2022-07-21T03:20:42;25.42;;;16.98;;
52858;SDS011;38721;53.098;6.596;2022-07-21T03:23:09;21.42;;;16.35;;
52858;SDS011;38721;53.098;6.596;2022-07-21T03:25:35;18.48;;;14.63;;
52858;SDS011;38721;53.098;6.596;2022-07-21T03:28:00;17.77;;;15.02;;
52858;SDS011;38721;53.098;6.596;2022-07-21T03:30:27;22.90;;;16.73;;
52858;SDS011;38721;53.098;6.596;2022-07-21T03:32:54;19.50;;;16.00;;
52858;SDS011;38721;53.098;6.596;2022-07-21T03:35:19;18.25;;;14.45;;
52858;SDS011;38721;53.098;6.596;2022-07-21T03:37:46;17.42;;;14.65;;
52858;SDS011;38721;53.098;6.596;2022-07-21T03:40:17;18.58;;;14.88;;
52858;SDS011;38721;53.098;6.596;2022-07-21T03:42:47;21.30;;;15.40;;
52858;SDS011;38721;53.098;6.596;2022-07-21T03:45:14;21.45;;;16.15;;
52858;SDS011;38721;53.098;6.596;2022-07-21T03:47:40;23.08;;;16.58;;
52858;SDS011;38721;53.098;6.596;2022-07-21T03:50:06;17.80;;;14.00;;
52858;SDS011;38721;53.098;6.596;2022-07-21T03:52:32;18.60;;;14.75;;
52858;SDS011;38721;53.098;6.596;2022-07-21T03:54:58;20.52;;;15.45;;
52858;SDS011;38721;53.098;6.596;2022-07-21T03:57:40;18.60;;;14.88;;
52858;SDS011;38721;53.098;6.596;2022-07-21T04:00:09;19.55;;;15.88;;
52858;SDS011;38721;53.098;6.596;2022-07-21T04:02:37;17.77;;;14.70;;
52858;SDS011;38721;53.098;6.596;2022-07-21T04:05:04;19.33;;;15.18;;
52858;SDS011;38721;53.098;6.596;2022-07-21T04:07:30;18.38;;;14.23;;
52858;SDS011;38721;53.098;6.596;2022-07-21T04:09:56;17.85;;;14.55;;
52858;SDS011;38721;53.098;6.596;2022-07-21T04:12:26;17.20;;;14.38;;
52858;SDS011;38721;53.098;6.596;2022-07-21T04:14:52;15.40;;;13.80;;
52858;SDS011;38721;53.098;6.596;2022-07-21T04:17:18;16.42;;;14.27;;
52858;SDS011;38721;53.098;6.596;2022-07-21T04:19:43;16.80;;;15.00;;
52858;SDS011;38721;53.098;6.596;2022-07-21T04:22:12;16.65;;;14.82;;
52858;SDS011;38721;53.098;6.596;2022-07-21T04:24:37;17.50;;;15.20;;
52858;SDS011;38721;53.098;6.596;2022-07-21T04:27:03;21.92;;;16.13;;
52858;SDS011;38721;53.098;6.596;2022-07-21T04:29:29;22.55;;;16.27;;
52858;SDS011;38721;53.098;6.596;2022-07-21T04:31:54;18.52;;;14.38;;
52858;SDS011;38721;53.098;6.596;2022-07-21T04:34:20;19.23;;;14.98;;
52858;SDS011;38721;53.098;6.596;2022-07-21T04:36:46;19.75;;;15.55;;
52858;SDS011;38721;53.098;6.596;2022-07-21T04:39:12;18.33;;;15.82;;
52858;SDS011;38721;53.098;6.596;2022-07-21T04:41:38;18.73;;;15.32;;
52858;SDS011;38721;53.098;6.596;2022-07-21T04:44:03;18.75;;;15.35;;
52858;SDS011;38721;53.098;6.596;2022-07-21T04:46:29;18.73;;;16.27;;
52858;SDS011;38721;53.098;6.596;2022-07-21T04:48:55;19.75;;;16.13;;
52858;SDS011;38721;53.098;6.596;2022-07-21T04:51:20;21.35;;;16.58;;
52858;SDS011;38721;53.098;6.596;2022-07-21T04:53:46;19.90;;;17.02;;
52858;SDS011;38721;53.098;6.596;2022-07-21T04:56:12;21.17;;;16.85;;
52858;SDS011;38721;53.098;6.596;2022-07-21T04:58:37;22.77;;;17.95;;
52858;SDS011;38721;53.098;6.596;2022-07-21T05:01:03;23.38;;;19.55;;
52858;SDS011;38721;53.098;6.596;2022-07-21T05:03:29;24.30;;;19.38;;
52858;SDS011;38721;53.098;6.596;2022-07-21T05:05:54;25.42;;;20.58;;
52858;SDS011;38721;53.098;6.596;2022-07-21T05:08:20;25.90;;;21.95;;
52858;SDS011;38721;53.098;6.596;2022-07-21T05:10:46;23.40;;;20.45;;
52858;SDS011;38721;53.098;6.596;2022-07-21T05:13:11;27.10;;;21.95;;
52858;SDS011;38721;53.098;6.596;2022-07-21T05:15:37;25.92;;;22.33;;
52858;SDS011;38721;53.098;6.596;2022-07-21T05:18:03;26.75;;;23.30;;
52858;SDS011;38721;53.098;6.596;2022-07-21T05:20:35;30.55;;;25.38;;
52858;SDS011;38721;53.098;6.596;2022-07-21T05:23:00;33.20;;;26.40;;
52858;SDS011;38721;53.098;6.596;2022-07-21T05:25:27;30.88;;;26.52;;
52858;SDS011;38721;53.098;6.596;2022-07-21T05:27:53;30.55;;;26.50;;
52858;SDS011;38721;53.098;6.596;2022-07-21T05:30:19;31.52;;;26.35;;
52858;SDS011;38721;53.098;6.596;2022-07-21T05:32:45;29.00;;;25.80;;
52858;SDS011;38721;53.098;6.596;2022-07-21T05:35:11;32.80;;;27.70;;
52858;SDS011;38721;53.098;6.596;2022-07-21T05:37:38;29.60;;;26.40;;
52858;SDS011;38721;53.098;6.596;2022-07-21T05:40:05;28.70;;;25.60;;
52858;SDS011;38721;53.098;6.596;2022-07-21T05:42:34;27.48;;;24.38;;
52858;SDS011;38721;53.098;6.596;2022-07-21T05:45:01;29.90;;;26.70;;
52858;SDS011;38721;53.098;6.596;2022-07-21T05:47:28;29.20;;;26.17;;
52858;SDS011;38721;53.098;6.596;2022-07-21T05:49:57;27.20;;;24.30;;
52858;SDS011;38721;53.098;6.596;2022-07-21T05:52:23;29.08;;;26.08;;
52858;SDS011;38721;53.098;6.596;2022-07-21T05:54:49;29.35;;;26.17;;
52858;SDS011;38721;53.098;6.596;2022-07-21T05:57:15;31.20;;;26.92;;
52858;SDS011;38721;53.098;6.596;2022-07-21T05:59:42;28.25;;;25.35;;
52858;SDS011;38721;53.098;6.596;2022-07-21T06:02:08;28.30;;;25.23;;
52858;SDS011;38721;53.098;6.596;2022-07-21T06:04:36;30.25;;;26.98;;
52858;SDS011;38721;53.098;6.596;2022-07-21T06:07:02;30.38;;;27.05;;
52858;SDS011;38721;53.098;6.596;2022-07-21T06:09:27;28.08;;;25.08;;
52858;SDS011;38721;53.098;6.596;2022-07-21T06:11:53;28.00;;;25.02;;
52858;SDS011;38721;53.098;6.596;2022-07-21T06:14:19;28.05;;;25.15;;
52858;SDS011;38721;53.098;6.596;2022-07-21T06:16:45;29.65;;;26.45;;
52858;SDS011;38721;53.098;6.596;2022-07-21T06:19:11;29.83;;;26.58;;
52858;SDS011;38721;53.098;6.596;2022-07-21T06:21:38;31.50;;;27.17;;
52858;SDS011;38721;53.098;6.596;2022-07-21T06:24:05;32.90;;;27.92;;
52858;SDS011;38721;53.098;6.596;2022-07-21T06:26:31;32.00;;;28.48;;
52858;SDS011;38721;53.098;6.596;2022-07-21T06:28:57;31.35;;;26.88;;
52858;SDS011;38721;53.098;6.596;2022-07-21T06:31:23;27.60;;;24.70;;
52858;SDS011;38721;53.098;6.596;2022-07-21T06:33:49;28.08;;;25.02;;
52858;SDS011;38721;53.098;6.596;2022-07-21T06:36:15;25.95;;;23.15;;
52858;SDS011;38721;53.098;6.596;2022-07-21T06:38:41;25.55;;;22.85;;
52858;SDS011;38721;53.098;6.596;2022-07-21T06:41:07;25.05;;;22.58;;
52858;SDS011;38721;53.098;6.596;2022-07-21T06:43:33;25.67;;;23.17;;
52858;SDS011;38721;53.098;6.596;2022-07-21T06:45:59;26.10;;;23.30;;
52858;SDS011;38721;53.098;6.596;2022-07-21T06:48:25;25.80;;;23.00;;
52858;SDS011;38721;53.098;6.596;2022-07-21T06:50:51;25.95;;;23.45;;
52858;SDS011;38721;53.098;6.596;2022-07-21T06:53:17;27.33;;;24.45;;
52858;SDS011;38721;53.098;6.596;2022-07-21T06:55:42;26.40;;;23.60;;
52858;SDS011;38721;53.098;6.596;2022-07-21T06:58:12;25.67;;;23.08;;
52858;SDS011;38721;53.098;6.596;2022-07-21T07:00:42;25.05;;;22.45;;
52858;SDS011;38721;53.098;6.596;2022-07-21T07:03:08;26.33;;;23.73;;
52858;SDS011;38721;53.098;6.596;2022-07-21T07:05:34;26.00;;;23.00;;
52858;SDS011;38721;53.098;6.596;2022-07-21T07:08:00;25.83;;;23.13;;
52858;SDS011;38721;53.098;6.596;2022-07-21T07:10:27;25.50;;;22.92;;
52858;SDS011;38721;53.098;6.596;2022-07-21T07:12:53;26.30;;;23.30;;
52858;SDS011;38721;53.098;6.596;2022-07-21T07:15:20;25.45;;;22.88;;
52858;SDS011;38721;53.098;6.596;2022-07-21T07:17:46;27.85;;;24.05;;
52858;SDS011;38721;53.098;6.596;2022-07-21T07:20:12;27.55;;;24.70;;
52858;SDS011;38721;53.098;6.596;2022-07-21T07:22:37;26.73;;;24.02;;
52858;SDS011;38721;53.098;6.596;2022-07-21T07:25:03;25.55;;;23.00;;
52858;SDS011;38721;53.098;6.596;2022-07-21T07:27:30;26.52;;;23.67;;
52858;SDS011;38721;53.098;6.596;2022-07-21T07:29:55;27.23;;;24.23;;
52858;SDS011;38721;53.098;6.596;2022-07-21T07:32:21;27.45;;;22.85;;
52858;SDS011;38721;53.098;6.596;2022-07-21T07:34:47;26.30;;;23.80;;
52858;SDS011;38721;53.098;6.596;2022-07-21T07:37:12;27.70;;;24.88;;
52858;SDS011;38721;53.098;6.596;2022-07-21T07:39:38;26.90;;;24.15;;
52858;SDS011;38721;53.098;6.596;2022-07-21T07:42:05;26.33;;;23.67;;
52858;SDS011;38721;53.098;6.596;2022-07-21T07:44:32;25.98;;;23.27;;
52858;SDS011;38721;53.098;6.596;2022-07-21T07:46:58;25.88;;;23.05;;
52858;SDS011;38721;53.098;6.596;2022-07-21T07:49:27;26.08;;;23.48;;
52858;SDS011;38721;53.098;6.596;2022-07-21T07:51:53;28.45;;;25.35;;
52858;SDS011;38721;53.098;6.596;2022-07-21T07:54:19;27.67;;;24.88;;
52858;SDS011;38721;53.098;6.596;2022-07-21T07:56:44;26.23;;;23.52;;
52858;SDS011;38721;53.098;6.596;2022-07-21T07:59:10;26.77;;;24.13;;
52858;SDS011;38721;53.098;6.596;2022-07-21T08:01:39;25.30;;;22.60;;
52858;SDS011;38721;53.098;6.596;2022-07-21T08:04:05;26.67;;;23.90;;
52858;SDS011;38721;53.098;6.596;2022-07-21T08:06:30;26.65;;;23.73;;
52858;SDS011;38721;53.098;6.596;2022-07-21T08:08:56;25.02;;;22.50;;
52858;SDS011;38721;53.098;6.596;2022-07-21T08:11:22;25.85;;;23.23;;
52858;SDS011;38721;53.098;6.596;2022-07-21T08:13:48;25.55;;;23.05;;
52858;SDS011;38721;53.098;6.596;2022-07-21T08:16:13;25.75;;;23.23;;
52858;SDS011;38721;53.098;6.596;2022-07-21T08:18:44;26.25;;;23.55;;
52858;SDS011;38721;53.098;6.596;2022-07-21T08:21:10;27.20;;;24.30;;
52858;SDS011;38721;53.098;6.596;2022-07-21T08:23:36;24.77;;;22.38;;
52858;SDS011;38721;53.098;6.596;2022-07-21T08:26:02;26.20;;;23.52;;
52858;SDS011;38721;53.098;6.596;2022-07-21T08:28:28;24.83;;;22.27;;
52858;SDS011;38721;53.098;6.596;2022-07-21T08:30:54;26.85;;;24.05;;
52858;SDS011;38721;53.098;6.596;2022-07-21T08:33:20;25.92;;;23.15;;
52858;SDS011;38721;53.098;6.596;2022-07-21T08:35:48;24.85;;;22.25;;
52858;SDS011;38721;53.098;6.596;2022-07-21T08:38:14;24.88;;;22.17;;
52858;SDS011;38721;53.098;6.596;2022-07-21T08:40:41;23.85;;;21.35;;
52858;SDS011;38721;53.098;6.596;2022-07-21T08:43:11;23.75;;;21.30;;
52858;SDS011;38721;53.098;6.596;2022-07-21T08:45:39;23.33;;;20.92;;
52858;SDS011;38721;53.098;6.596;2022-07-21T08:48:06;23.80;;;21.25;;
52858;SDS011;38721;53.098;6.596;2022-07-21T08:50:38;22.90;;;20.60;;
52858;SDS011;38721;53.098;6.596;2022-07-21T08:53:07;22.63;;;20.23;;
52858;SDS011;38721;53.098;6.596;2022-07-21T08:55:34;24.17;;;21.55;;
52858;SDS011;38721;53.098;6.596;2022-07-21T08:58:06;24.65;;;22.10;;
52858;SDS011;38721;53.098;6.596;2022-07-21T09:00:33;26.10;;;23.50;;
52858;SDS011;38721;53.098;6.596;2022-07-21T09:03:10;26.13;;;23.52;;
52858;SDS011;38721;53.098;6.596;2022-07-21T09:05:40;27.63;;;23.95;;
52858;SDS011;38721;53.098;6.596;2022-07-21T09:08:07;27.48;;;24.67;;
52858;SDS011;38721;53.098;6.596;2022-07-21T09:10:33;29.33;;;26.23;;
52858;SDS011;38721;53.098;6.596;2022-07-21T09:13:00;29.02;;;26.02;;
52858;SDS011;38721;53.098;6.596;2022-07-21T09:15:28;28.75;;;25.88;;
52858;SDS011;38721;53.098;6.596;2022-07-21T09:20:52;27.63;;;24.73;;
52858;SDS011;38721;53.098;6.596;2022-07-21T09:23:20;26.80;;;24.02;;
52858;SDS011;38721;53.098;6.596;2022-07-21T09:25:49;26.52;;;23.73;;
52858;SDS011;38721;53.098;6.596;2022-07-21T09:28:28;26.85;;;23.92;;
52858;SDS011;38721;53.098;6.596;2022-07-21T09:31:02;26.05;;;23.33;;
52858;SDS011;38721;53.098;6.596;2022-07-21T09:38:31;24.55;;;21.95;;
52858;SDS011;38721;53.098;6.596;2022-07-21T09:41:06;25.63;;;22.92;;
52858;SDS011;38721;53.098;6.596;2022-07-21T09:48:40;27.10;;;24.48;;
52858;SDS011;38721;53.098;6.596;2022-07-21T09:51:31;26.98;;;24.27;;
52858;SDS011;38721;53.098;6.596;2022-07-21T09:54:04;28.30;;;25.40;;
52858;SDS011;38721;53.098;6.596;2022-07-21T09:56:32;27.48;;;24.60;;
52858;SDS011;38721;53.098;6.596;2022-07-21T09:59:00;25.15;;;22.55;;
52858;SDS011;38721;53.098;6.596;2022-07-21T10:01:27;26.38;;;23.48;;
52858;SDS011;38721;53.098;6.596;2022-07-21T10:03:54;25.65;;;23.08;;
52858;SDS011;38721;53.098;6.596;2022-07-21T10:06:28;26.02;;;23.27;;
52858;SDS011;38721;53.098;6.596;2022-07-21T10:08:57;26.50;;;23.77;;
52858;SDS011;38721;53.098;6.596;2022-07-21T10:11:24;29.25;;;26.25;;
52858;SDS011;38721;53.098;6.596;2022-07-21T10:13:51;31.35;;;28.00;;
52858;SDS011;38721;53.098;6.596;2022-07-21T10:16:18;31.50;;;28.25;;
52858;SDS011;38721;53.098;6.596;2022-07-21T10:24:06;31.70;;;28.40;;
52858;SDS011;38721;53.098;6.596;2022-07-21T10:26:36;33.20;;;26.67;;
52858;SDS011;38721;53.098;6.596;2022-07-21T10:29:02;31.85;;;27.58;;
52858;SDS011;38721;53.098;6.596;2022-07-21T10:31:27;30.20;;;26.92;;
52858;SDS011;38721;53.098;6.596;2022-07-21T10:33:54;29.25;;;26.15;;
52858;SDS011;38721;53.098;6.596;2022-07-21T10:41:41;28.05;;;25.08;;
52858;SDS011;38721;53.098;6.596;2022-07-21T10:57:35;17.55;;;14.60;;
52858;SDS011;38721;53.098;6.596;2022-07-21T11:00:15;17.67;;;14.52;;
52858;SDS011;38721;53.098;6.596;2022-07-21T11:02:41;15.68;;;12.95;;
52858;SDS011;38721;53.098;6.596;2022-07-21T11:05:08;15.23;;;12.80;;
52858;SDS011;38721;53.098;6.596;2022-07-21T11:10:38;20.25;;;16.23;;
52858;SDS011;38721;53.098;6.596;2022-07-21T11:13:09;19.92;;;16.63;;
52858;SDS011;38721;53.098;6.596;2022-07-21T11:18:19;22.45;;;18.90;;
52858;SDS011;38721;53.098;6.596;2022-07-21T11:21:00;22.48;;;20.08;;
52858;SDS011;38721;53.098;6.596;2022-07-21T11:23:34;24.15;;;21.38;;
52858;SDS011;38721;53.098;6.596;2022-07-21T11:26:01;24.77;;;22.13;;
52858;SDS011;38721;53.098;6.596;2022-07-21T11:28:27;25.02;;;22.35;;
52858;SDS011;38721;53.098;6.596;2022-07-21T11:33:50;24.52;;;21.27;;
52858;SDS011;38721;53.098;6.596;2022-07-21T11:36:27;23.17;;;19.20;;
52858;SDS011;38721;53.098;6.596;2022-07-21T11:39:00;21.92;;;18.92;;
52858;SDS011;38721;53.098;6.596;2022-07-21T11:41:31;20.88;;;18.45;;
52858;SDS011;38721;53.098;6.596;2022-07-21T11:43:57;21.05;;;18.73;;
52858;SDS011;38721;53.098;6.596;2022-07-21T11:46:23;21.90;;;19.38;;
52858;SDS011;38721;53.098;6.596;2022-07-21T11:48:59;20.05;;;17.88;;
52858;SDS011;38721;53.098;6.596;2022-07-21T11:51:30;21.30;;;18.90;;
52858;SDS011;38721;53.098;6.596;2022-07-21T11:53:56;21.30;;;19.10;;
52858;SDS011;38721;53.098;6.596;2022-07-21T11:56:28;21.67;;;17.58;;
52858;SDS011;38721;53.098;6.596;2022-07-21T11:59:09;22.20;;;18.02;;
52858;SDS011;38721;53.098;6.596;2022-07-21T12:01:49;21.40;;;19.25;;
52858;SDS011;38721;53.098;6.596;2022-07-21T12:04:25;23.35;;;20.20;;
52858;SDS011;38721;53.098;6.596;2022-07-21T12:07:03;22.98;;;19.48;;
52858;SDS011;38721;53.098;6.596;2022-07-21T12:09:32;23.48;;;21.15;;
52858;SDS011;38721;53.098;6.596;2022-07-21T12:11:59;21.48;;;19.27;;
52858;SDS011;38721;53.098;6.596;2022-07-21T12:19:59;22.63;;;18.20;;
52858;SDS011;38721;53.098;6.596;2022-07-21T12:22:35;15.65;;;14.15;;
52858;SDS011;38721;53.098;6.596;2022-07-21T12:25:10;15.57;;;13.10;;
52858;SDS011;38721;53.098;6.596;2022-07-21T12:27:37;15.15;;;13.55;;
52858;SDS011;38721;53.098;6.596;2022-07-21T12:30:05;15.25;;;13.68;;
52858;SDS011;38721;53.098;6.596;2022-07-21T12:32:40;13.60;;;12.30;;
52858;SDS011;38721;53.098;6.596;2022-07-21T12:35:23;15.30;;;13.00;;
52858;SDS011;38721;53.098;6.596;2022-07-21T12:38:01;15.52;;;13.40;;
52858;SDS011;38721;53.098;6.596;2022-07-21T12:40:36;16.67;;;14.37;;
52858;SDS011;38721;53.098;6.596;2022-07-21T12:45:31;14.18;;;11.70;;
52858;SDS011;38721;53.098;6.596;2022-07-21T12:48:10;11.98;;;10.57;;
52858;SDS011;38721;53.098;6.596;2022-07-21T12:50:37;12.60;;;11.30;;
52858;SDS011;38721;53.098;6.596;2022-07-21T12:53:08;12.85;;;11.50;;
52858;SDS011;38721;53.098;6.596;2022-07-21T12:55:35;13.45;;;12.05;;
52858;SDS011;38721;53.098;6.596;2022-07-21T12:58:02;13.65;;;10.88;;
52858;SDS011;38721;53.098;6.596;2022-07-21T13:00:28;10.57;;;9.57;;
52858;SDS011;38721;53.098;6.596;2022-07-21T13:02:55;10.68;;;9.57;;
52858;SDS011;38721;53.098;6.596;2022-07-21T13:05:22;10.27;;;9.27;;
52858;SDS011;38721;53.098;6.596;2022-07-21T13:07:49;10.02;;;9.02;;
52858;SDS011;38721;53.098;6.596;2022-07-21T13:10:15;10.10;;;9.10;;
52858;SDS011;38721;53.098;6.596;2022-07-21T13:12:41;11.52;;;10.32;;
52858;SDS011;38721;53.098;6.596;2022-07-21T13:15:08;11.43;;;10.27;;
52858;SDS011;38721;53.098;6.596;2022-07-21T13:17:33;11.98;;;10.77;;
52858;SDS011;38721;53.098;6.596;2022-07-21T13:19:59;12.80;;;11.48;;
52858;SDS011;38721;53.098;6.596;2022-07-21T13:22:25;14.15;;;11.93;;
52858;SDS011;38721;53.098;6.596;2022-07-21T13:24:51;11.20;;;10.20;;
52858;SDS011;38721;53.098;6.596;2022-07-21T13:27:17;11.82;;;10.70;;
52858;SDS011;38721;53.098;6.596;2022-07-21T13:29:43;10.90;;;9.77;;
52858;SDS011;38721;53.098;6.596;2022-07-21T13:32:09;5.00;;;4.50;;
52858;SDS011;38721;53.098;6.596;2022-07-21T13:34:35;4.20;;;3.80;;
52858;SDS011;38721;53.098;6.596;2022-07-21T13:37:01;3.65;;;3.22;;
52858;SDS011;38721;53.098;6.596;2022-07-21T13:39:26;3.53;;;3.22;;
52858;SDS011;38721;53.098;6.596;2022-07-21T13:41:56;3.20;;;2.90;;
52858;SDS011;38721;53.098;6.596;2022-07-21T13:44:22;3.67;;;3.35;;
52858;SDS011;38721;53.098;6.596;2022-07-21T13:46:48;3.50;;;3.20;;
52858;SDS011;38721;53.098;6.596;2022-07-21T13:49:14;3.95;;;3.55;;
52858;SDS011;38721;53.098;6.596;2022-07-21T13:51:39;4.07;;;2.90;;
52858;SDS011;38721;53.098;6.596;2022-07-21T13:54:05;3.63;;;3.08;;
52858;SDS011;38721;53.098;6.596;2022-07-21T13:56:31;3.28;;;2.95;;
52858;SDS011;38721;53.098;6.596;2022-07-21T13:59:00;3.63;;;3.13;;
52858;SDS011;38721;53.098;6.596;2022-07-21T14:01:25;5.20;;;4.70;;
52858;SDS011;38721;53.098;6.596;2022-07-21T14:03:51;7.22;;;5.53;;
52858;SDS011;38721;53.098;6.596;2022-07-21T14:06:17;9.82;;;7.07;;
52858;SDS011;38721;53.098;6.596;2022-07-21T14:08:43;9.50;;;6.70;;
52858;SDS011;38721;53.098;6.596;2022-07-21T14:11:09;8.80;;;7.22;;
52858;SDS011;38721;53.098;6.596;2022-07-21T14:13:36;8.35;;;6.40;;
52858;SDS011;38721;53.098;6.596;2022-07-21T14:16:05;9.05;;;6.32;;
52858;SDS011;38721;53.098;6.596;2022-07-21T14:18:31;9.75;;;8.07;;
52858;SDS011;38721;53.098;6.596;2022-07-21T14:20:57;9.80;;;8.80;;
52858;SDS011;38721;53.098;6.596;2022-07-21T14:23:23;10.25;;;9.23;;
52858;SDS011;38721;53.098;6.596;2022-07-21T14:25:49;11.02;;;9.73;;
52858;SDS011;38721;53.098;6.596;2022-07-21T14:28:16;12.15;;;10.70;;
52858;SDS011;38721;53.098;6.596;2022-07-21T14:30:42;10.85;;;9.80;;
52858;SDS011;38721;53.098;6.596;2022-07-21T14:33:08;10.32;;;9.32;;
52858;SDS011;38721;53.098;6.596;2022-07-21T14:35:34;11.70;;;9.80;;
52858;SDS011;38721;53.098;6.596;2022-07-21T14:38:00;10.05;;;9.05;;
52858;SDS011;38721;53.098;6.596;2022-07-21T14:40:26;9.60;;;8.70;;
52858;SDS011;38721;53.098;6.596;2022-07-21T14:42:52;10.05;;;8.75;;
52858;SDS011;38721;53.098;6.596;2022-07-21T14:45:19;9.32;;;8.43;;
52858;SDS011;38721;53.098;6.596;2022-07-21T14:47:45;9.35;;;8.35;;
52858;SDS011;38721;53.098;6.596;2022-07-21T14:50:12;9.98;;;8.65;;
52858;SDS011;38721;53.098;6.596;2022-07-21T14:52:41;9.73;;;8.63;;
52858;SDS011;38721;53.098;6.596;2022-07-21T14:55:07;8.75;;;7.85;;
52858;SDS011;38721;53.098;6.596;2022-07-21T14:57:34;10.05;;;9.05;;
52858;SDS011;38721;53.098;6.596;2022-07-21T15:00:00;9.68;;;8.35;;
52858;SDS011;38721;53.098;6.596;2022-07-21T15:02:27;9.57;;;8.13;;
52858;SDS011;38721;53.098;6.596;2022-07-21T15:04:53;8.35;;;7.55;;
52858;SDS011;38721;53.098;6.596;2022-07-21T15:07:19;9.00;;;8.05;;
52858;SDS011;38721;53.098;6.596;2022-07-21T15:09:45;8.85;;;7.88;;
52858;SDS011;38721;53.098;6.596;2022-07-21T15:12:10;8.60;;;7.50;;
52858;SDS011;38721;53.098;6.596;2022-07-21T15:14:36;8.98;;;7.63;;
52858;SDS011;38721;53.098;6.596;2022-07-21T15:17:03;7.90;;;6.75;;
52858;SDS011;38721;53.098;6.596;2022-07-21T15:19:31;7.75;;;7.07;;
52858;SDS011;38721;53.098;6.596;2022-07-21T15:21:57;7.90;;;6.50;;
52858;SDS011;38721;53.098;6.596;2022-07-21T15:24:23;7.43;;;6.53;;